createdAt,value
2022-11-18T00:01:58.060Z,8.33
2022-11-18T00:04:45.891Z,8.32
2022-11-18T00:07:34.088Z,8.26
2022-11-18T00:10:21.904Z,8.23
2022-11-18T00:13:31.344Z,8.22
2022-11-18T00:16:19.057Z,8.25
2022-11-18T00:19:15.980Z,8.22
2022-11-18T00:22:05.060Z,8.22
2022-11-18T00:25:18.254Z,8.20
2022-11-18T00:28:06.091Z,8.16
2022-11-18T00:31:01.039Z,8.17
2022-11-18T00:33:49.081Z,8.18
2022-11-18T00:36:37.060Z,8.18
2022-11-18T00:39:26.041Z,8.16
2022-11-18T00:42:31.586Z,8.18
2022-11-18T00:45:19.800Z,8.17
2022-11-18T00:48:09.167Z,8.15
2022-11-18T00:50:59.390Z,8.16
2022-11-18T00:53:47.938Z,8.17
2022-11-18T00:56:35.778Z,8.16
2022-11-18T00:59:24.536Z,8.16
2022-11-18T01:02:12.529Z,8.15
2022-11-18T01:05:01.842Z,8.09
2022-11-18T01:07:49.780Z,8.08
2022-11-18T01:11:17.510Z,8.15
2022-11-18T01:14:05.623Z,8.07
2022-11-18T01:16:56.213Z,8.03
2022-11-18T01:19:50.695Z,8.01
2022-11-18T01:22:39.971Z,8.01
2022-11-18T01:25:28.548Z,7.99
2022-11-18T01:28:23.628Z,8.01
2022-11-18T01:31:14.511Z,8.05
2022-11-18T01:34:02.552Z,8.05
2022-11-18T01:36:53.129Z,7.96
2022-11-18T01:39:42.965Z,7.95
2022-11-18T01:42:30.863Z,7.93
2022-11-18T01:45:48.538Z,7.93
2022-11-18T01:48:37.009Z,7.86
2022-11-18T01:51:30.164Z,7.84
2022-11-18T01:54:22.332Z,7.79
2022-11-18T01:57:17.163Z,7.77
2022-11-18T02:00:07.646Z,7.76
2022-11-18T02:02:56.975Z,7.77
2022-11-18T02:05:47.728Z,7.77
2022-11-18T02:08:37.512Z,7.77
2022-11-18T02:11:42.992Z,7.72
2022-11-18T02:14:35.154Z,7.69
2022-11-18T02:17:35.248Z,7.64
2022-11-18T02:20:51.310Z,7.63
2022-11-18T02:24:02.410Z,7.62
2022-11-18T02:27:21.241Z,7.60
2022-11-18T02:30:12.220Z,7.57
2022-11-18T02:33:08.565Z,7.53
2022-11-18T02:36:03.844Z,7.49
2022-11-18T02:38:58.526Z,7.44
2022-11-18T02:41:49.066Z,7.41
2022-11-18T02:44:39.479Z,7.37
2022-11-18T02:47:30.437Z,7.36
2022-11-18T02:50:22.462Z,7.32
2022-11-18T02:53:14.932Z,7.28
2022-11-18T02:56:10.184Z,7.24
2022-11-18T02:58:58.212Z,7.22
2022-11-18T03:01:48.321Z,7.19
2022-11-18T03:04:37.922Z,7.15
2022-11-18T03:07:33.937Z,7.10
2022-11-18T03:10:25.111Z,7.11
2022-11-18T03:13:21.776Z,7.05
2022-11-18T03:16:15.753Z,7.03
2022-11-18T03:19:10.618Z,7.00
2022-11-18T03:22:09.093Z,6.98
2022-11-18T03:25:02.771Z,6.98
2022-11-18T03:27:58.621Z,7.06
2022-11-18T03:30:51.832Z,7.02
2022-11-18T03:33:41.884Z,6.98
2022-11-18T03:36:36.011Z,7.00
2022-11-18T03:39:27.640Z,7.03
2022-11-18T03:42:20.886Z,7.01
2022-11-18T03:45:13.859Z,7.15
2022-11-18T03:48:06.167Z,7.16
2022-11-18T03:50:59.066Z,7.17
2022-11-18T03:53:54.068Z,7.15
2022-11-18T03:56:48.511Z,7.12
2022-11-18T03:59:41.264Z,7.08
2022-11-18T04:02:31.255Z,7.14
2022-11-18T04:05:20.710Z,7.13
2022-11-18T04:08:14.251Z,7.15
2022-11-18T04:11:10.432Z,7.22
2022-11-18T04:14:01.460Z,7.28
2022-11-18T04:16:54.101Z,7.26
2022-11-18T04:19:42.792Z,7.25
2022-11-18T04:22:31.258Z,7.24
2022-11-18T04:25:19.365Z,7.20
2022-11-18T04:28:07.695Z,7.22
2022-11-18T04:30:57.152Z,7.25
2022-11-18T04:33:45.268Z,7.25
2022-11-18T04:36:32.981Z,7.21
2022-11-18T04:39:21.248Z,7.29
2022-11-18T04:42:09.273Z,7.35
2022-11-18T04:44:56.923Z,7.34
2022-11-18T04:47:46.303Z,7.35
2022-11-18T04:50:34.296Z,7.37
2022-11-18T04:53:22.242Z,7.38
2022-11-18T04:56:10.484Z,7.39
2022-11-18T04:58:59.865Z,7.39
2022-11-18T05:01:48.107Z,7.38
2022-11-18T05:04:37.864Z,7.38
2022-11-18T05:07:26.011Z,7.35
2022-11-18T05:10:13.711Z,7.34
2022-11-18T05:13:00.602Z,7.37
2022-11-18T05:15:48.757Z,7.43
2022-11-18T05:18:36.667Z,7.43
2022-11-18T05:21:26.137Z,7.44
2022-11-18T05:24:13.894Z,7.45
2022-11-18T05:27:02.143Z,7.45
2022-11-18T05:29:50.069Z,7.45
2022-11-18T05:32:38.764Z,7.46
2022-11-18T05:35:32.263Z,7.42
2022-11-18T05:38:21.523Z,7.45
2022-11-18T05:41:10.025Z,7.47
2022-11-18T05:43:56.986Z,7.44
2022-11-18T05:46:44.947Z,7.43
2022-11-18T05:49:32.721Z,7.41
2022-11-18T05:52:20.787Z,7.42
2022-11-18T05:55:11.817Z,7.44
2022-11-18T05:57:59.530Z,7.46
2022-11-18T06:00:49.660Z,7.47
2022-11-18T06:03:41.356Z,7.49
2022-11-18T06:06:29.636Z,7.51
2022-11-18T06:09:22.606Z,7.52
2022-11-18T06:12:17.295Z,7.50
2022-11-18T06:15:08.884Z,7.52
2022-11-18T06:18:06.379Z,7.47
2022-11-18T06:20:57.427Z,7.42
2022-11-18T06:23:45.590Z,7.44
2022-11-18T06:26:59.818Z,7.45
2022-11-18T06:29:48.843Z,7.47
2022-11-18T06:32:36.974Z,7.49
2022-11-18T06:35:24.901Z,7.50
2022-11-18T06:38:12.714Z,7.50
2022-11-18T06:41:01.621Z,7.51
2022-11-18T06:43:57.942Z,7.53
2022-11-18T06:46:58.302Z,7.52
2022-11-18T06:49:46.192Z,7.55
2022-11-18T06:52:34.339Z,7.57
2022-11-18T06:55:22.450Z,7.55
2022-11-18T06:58:10.456Z,7.54
2022-11-18T07:00:58.766Z,7.56
2022-11-18T07:03:49.003Z,7.55
2022-11-18T07:06:38.006Z,7.57
2022-11-18T07:09:25.816Z,7.57
2022-11-18T07:12:13.791Z,7.57
2022-11-18T07:15:01.595Z,7.58
2022-11-18T07:17:49.578Z,7.59
2022-11-18T07:20:38.946Z,7.59
2022-11-18T07:23:26.866Z,7.60
2022-11-18T07:26:15.124Z,7.64
2022-11-18T07:29:03.100Z,7.62
2022-11-18T07:31:50.812Z,7.64
2022-11-18T07:34:38.836Z,7.66
2022-11-18T07:37:28.847Z,7.66
2022-11-18T07:40:16.722Z,7.68
2022-11-18T07:43:04.690Z,7.69
2022-11-18T07:45:52.749Z,7.71
2022-11-18T07:48:40.857Z,7.72
2022-11-18T07:51:30.528Z,7.75
2022-11-18T07:54:20.092Z,7.78
2022-11-18T07:57:07.881Z,7.79
2022-11-18T07:59:55.854Z,7.79
2022-11-18T08:02:44.497Z,7.82
2022-11-18T08:05:32.527Z,7.84
2022-11-18T08:08:20.521Z,7.86
2022-11-18T08:11:15.181Z,7.87
2022-11-18T08:14:06.586Z,7.90
2022-11-18T08:16:54.550Z,7.90
2022-11-18T08:19:42.761Z,7.93
2022-11-18T08:22:30.692Z,7.94
2022-11-18T08:25:18.868Z,7.97
2022-11-18T08:28:08.349Z,7.98
2022-11-18T08:30:56.942Z,7.99
2022-11-18T08:33:45.959Z,8.02
2022-11-18T08:36:36.010Z,8.02
2022-11-18T08:39:23.686Z,8.03
2022-11-18T08:42:11.755Z,8.06
2022-11-18T08:45:01.265Z,8.06
2022-11-18T08:47:49.148Z,8.07
2022-11-18T08:50:37.159Z,8.07
2022-11-18T08:53:25.063Z,8.06
2022-11-18T08:56:16.120Z,8.06
2022-11-18T08:59:03.932Z,8.07
2022-11-18T09:01:53.284Z,8.08
2022-11-18T09:04:41.742Z,8.08
2022-11-18T09:07:29.633Z,8.08
2022-11-18T09:10:18.087Z,8.10
2022-11-18T09:13:38.684Z,8.10
2022-11-18T09:16:14.833Z,8.11
2022-11-18T09:22:12.145Z,8.13
2022-11-18T09:25:00.101Z,8.13
2022-11-18T09:27:48.598Z,8.12
2022-11-18T09:30:36.317Z,8.09
2022-11-18T09:33:24.553Z,8.11
2022-11-18T09:36:16.615Z,8.11
2022-11-18T09:39:04.366Z,8.10
2022-11-18T09:42:01.804Z,8.10
2022-11-18T09:45:18.175Z,8.10
2022-11-18T09:48:18.545Z,8.11
2022-11-18T09:51:07.316Z,8.09
2022-11-18T09:53:56.825Z,8.09
2022-11-18T09:56:44.831Z,8.10
2022-11-18T09:59:33.779Z,8.14
2022-11-18T10:02:43.219Z,8.16
2022-11-18T10:05:33.476Z,8.17
2022-11-18T10:08:26.848Z,8.18
2022-11-18T10:11:18.075Z,8.19
2022-11-18T10:14:23.484Z,8.24
2022-11-18T10:17:26.588Z,8.27
2022-11-18T10:20:39.800Z,8.32
2022-11-18T10:23:30.454Z,8.35
2022-11-18T10:26:35.613Z,8.38
2022-11-18T10:29:23.763Z,8.39
2022-11-18T10:32:15.001Z,8.41
2022-11-18T10:35:02.946Z,8.45
2022-11-18T10:38:09.946Z,8.46
2022-11-18T10:41:02.378Z,8.47
2022-11-18T10:43:54.042Z,8.47
2022-11-18T10:46:44.479Z,8.49
2022-11-18T10:49:40.190Z,8.49
2022-11-18T10:52:29.854Z,8.50
2022-11-18T10:55:23.499Z,8.49
2022-11-18T10:58:16.243Z,8.51
2022-11-18T11:01:15.269Z,8.52
2022-11-18T11:04:12.760Z,8.52
2022-11-18T11:07:15.158Z,8.53
2022-11-18T11:10:19.328Z,8.53
2022-11-18T11:13:16.731Z,8.55
2022-11-18T11:16:07.105Z,8.55
2022-11-18T11:19:01.636Z,8.56
2022-11-18T11:21:49.449Z,8.57
2022-11-18T11:24:37.457Z,8.59
2022-11-18T11:30:52.681Z,8.60
2022-11-18T11:33:48.871Z,8.64
2022-11-18T11:36:48.379Z,8.67
2022-11-18T11:39:49.384Z,8.68
2022-11-18T11:42:47.367Z,8.72
2022-11-18T11:45:45.986Z,8.77
2022-11-18T11:48:48.356Z,8.78
2022-11-18T11:51:46.381Z,8.80
2022-11-18T11:54:44.486Z,8.82
2022-11-18T11:57:43.171Z,8.85
2022-11-18T12:00:35.974Z,8.82
2022-11-18T12:03:48.639Z,8.83
2022-11-18T12:06:42.543Z,8.85
2022-11-18T12:09:44.859Z,8.83
2022-11-18T12:12:39.308Z,8.84
2022-11-18T12:15:42.086Z,8.84
2022-11-18T12:18:39.197Z,8.85
2022-11-18T12:21:58.067Z,8.85
2022-11-18T12:24:47.517Z,8.87
2022-11-18T12:28:02.653Z,8.89
2022-11-18T12:30:51.006Z,8.92
2022-11-18T12:33:45.165Z,8.95
2022-11-18T12:36:34.790Z,8.95
2022-11-18T12:39:58.285Z,8.94
2022-11-18T12:43:05.032Z,8.95
2022-11-18T12:45:55.754Z,8.94
2022-11-18T12:48:43.747Z,8.92
2022-11-18T12:51:44.356Z,8.91
2022-11-18T12:54:36.383Z,8.91
2022-11-18T12:57:28.470Z,8.90
2022-11-18T13:00:52.248Z,8.90
2022-11-18T13:03:40.656Z,8.90
2022-11-18T13:06:31.684Z,8.88
2022-11-18T13:09:24.005Z,8.88
2022-11-18T13:12:19.276Z,8.86
2022-11-18T13:15:31.240Z,8.82
2022-11-18T13:18:21.427Z,8.80
2022-11-18T13:21:24.956Z,8.80
2022-11-18T13:24:18.011Z,8.79
2022-11-18T13:27:06.287Z,8.78
2022-11-18T13:30:02.364Z,8.74
2022-11-18T13:32:53.588Z,8.75
2022-11-18T13:35:42.670Z,8.74
2022-11-18T13:38:30.764Z,8.76
2022-11-18T13:41:34.996Z,8.73
2022-11-18T13:44:27.070Z,8.75
2022-11-18T13:47:28.782Z,8.75
2022-11-18T13:50:23.845Z,8.75
2022-11-18T13:53:23.680Z,8.77
2022-11-18T13:56:20.222Z,8.76
2022-11-18T13:59:18.025Z,8.77
2022-11-18T14:02:14.695Z,8.78
2022-11-18T14:05:02.976Z,8.78
2022-11-18T14:08:06.624Z,8.76
2022-11-18T14:10:54.831Z,8.77
2022-11-18T14:13:53.112Z,8.75
2022-11-18T14:16:42.815Z,8.72
2022-11-18T14:19:33.823Z,8.71
2022-11-18T14:22:23.804Z,8.72
2022-11-18T14:25:21.994Z,8.71
2022-11-18T14:28:20.103Z,8.71
2022-11-18T14:31:23.055Z,8.70
2022-11-18T14:34:25.628Z,8.70
2022-11-18T14:37:15.040Z,8.70
2022-11-18T14:40:03.165Z,8.68
2022-11-18T14:42:52.369Z,8.69
2022-11-18T14:45:40.803Z,8.65
2022-11-18T14:48:32.588Z,8.65
2022-11-18T14:51:20.863Z,8.64
2022-11-18T14:54:12.589Z,8.62
2022-11-18T14:57:03.724Z,8.59
2022-11-18T14:59:52.749Z,8.58
2022-11-18T15:02:40.767Z,8.57
2022-11-18T15:05:29.180Z,8.55
2022-11-18T15:08:17.507Z,8.53
2022-11-18T15:11:05.262Z,8.51
2022-11-18T15:13:53.309Z,8.51
2022-11-18T15:16:42.353Z,8.49
2022-11-18T15:19:32.180Z,8.49
2022-11-18T15:22:20.602Z,8.48
2022-11-18T15:25:10.096Z,8.48
2022-11-18T15:27:57.856Z,8.46
2022-11-18T15:30:46.013Z,8.46
2022-11-18T15:33:35.308Z,8.41
2022-11-18T15:36:25.198Z,8.40
2022-11-18T15:39:13.603Z,8.39
2022-11-18T15:42:01.472Z,8.38
2022-11-18T15:44:49.307Z,8.38
2022-11-18T15:47:37.391Z,8.37
2022-11-18T15:50:26.679Z,8.36
2022-11-18T15:53:14.529Z,8.34
2022-11-18T15:56:24.457Z,8.32
2022-11-18T15:59:14.205Z,8.30
2022-11-18T16:02:02.096Z,8.27
2022-11-18T16:04:50.237Z,8.26
2022-11-18T16:07:39.985Z,8.25
2022-11-18T16:10:45.459Z,8.23
2022-11-18T16:13:33.106Z,8.21
2022-11-18T16:16:21.716Z,8.22
2022-11-18T16:19:11.484Z,8.19
2022-11-18T16:21:59.369Z,8.19
2022-11-18T16:24:48.729Z,8.17
2022-11-18T16:27:37.261Z,8.16
2022-11-18T16:30:42.453Z,8.16
2022-11-18T16:33:30.600Z,8.17
2022-11-18T16:36:18.947Z,8.16
2022-11-18T16:39:08.190Z,8.17
2022-11-18T16:42:06.685Z,8.18
2022-11-18T16:44:55.207Z,8.16
2022-11-18T16:47:43.323Z,8.16
2022-11-18T16:50:31.143Z,8.13
2022-11-18T16:53:19.755Z,8.13
2022-11-18T16:56:07.586Z,8.14
2022-11-18T16:59:00.968Z,8.11
2022-11-18T17:01:48.840Z,8.12
2022-11-18T17:04:38.617Z,8.13
2022-11-18T17:07:26.859Z,8.12
2022-11-18T17:10:20.551Z,8.13
2022-11-18T17:13:08.529Z,8.13
2022-11-18T17:15:57.924Z,8.10
2022-11-18T17:18:46.723Z,8.11
2022-11-18T17:21:34.600Z,8.09
2022-11-18T17:24:24.378Z,8.10
2022-11-18T17:27:12.156Z,8.09
2022-11-18T17:30:00.185Z,8.09
2022-11-18T17:32:50.834Z,8.08
2022-11-18T17:35:38.919Z,8.08
2022-11-18T17:38:27.257Z,8.07
2022-11-18T17:41:31.077Z,8.06
2022-11-18T17:44:19.538Z,8.07
2022-11-18T17:47:07.451Z,8.07
2022-11-18T17:49:56.590Z,8.06
2022-11-18T17:52:44.184Z,8.04
2022-11-18T17:55:32.206Z,8.02
2022-11-18T17:58:20.242Z,8.03
2022-11-18T18:01:09.600Z,7.98
2022-11-18T18:03:57.691Z,7.99
2022-11-18T18:06:48.954Z,7.97
2022-11-18T18:09:38.065Z,7.98
2022-11-18T18:12:42.780Z,7.97
2022-11-18T18:15:30.981Z,7.99
2022-11-18T18:18:19.445Z,7.98
2022-11-18T18:21:12.536Z,7.99
2022-11-18T18:24:02.314Z,8.00
2022-11-18T18:26:50.049Z,7.98
2022-11-18T18:29:38.257Z,7.99
2022-11-18T18:32:26.677Z,7.99
2022-11-18T18:35:14.730Z,8.00
2022-11-18T18:38:02.828Z,7.97
2022-11-18T18:40:52.034Z,7.96
2022-11-18T18:43:40.307Z,7.96
2022-11-18T18:46:36.698Z,7.97
2022-11-18T18:49:24.839Z,7.96
2022-11-18T18:52:12.656Z,7.96
2022-11-18T18:55:00.985Z,7.95
2022-11-18T18:57:50.429Z,7.94
2022-11-18T19:00:38.316Z,7.92
2022-11-18T19:03:26.206Z,7.92
2022-11-18T19:09:28.822Z,7.87
2022-11-18T19:12:34.095Z,7.86
2022-11-18T19:15:23.581Z,7.82
2022-11-18T19:18:12.131Z,7.82
2022-11-18T19:21:04.342Z,7.80
2022-11-18T19:23:52.333Z,7.76
2022-11-18T19:26:40.201Z,7.74
2022-11-18T19:29:28.386Z,7.73
2022-11-18T19:32:18.113Z,7.73
2022-11-18T19:35:15.171Z,7.71
2022-11-18T19:38:03.268Z,7.71
2022-11-18T19:40:50.887Z,7.69
2022-11-18T19:43:39.058Z,7.68
2022-11-18T19:46:37.685Z,7.65
2022-11-18T19:49:26.963Z,7.64
2022-11-18T19:52:14.558Z,7.62
2022-11-18T19:55:03.645Z,7.59
2022-11-18T19:58:10.046Z,7.54
2022-11-18T20:00:58.826Z,7.49
2022-11-18T20:03:52.254Z,7.42
2022-11-18T20:06:41.802Z,7.41
2022-11-18T20:09:30.171Z,7.40
2022-11-18T20:12:17.874Z,7.40
2022-11-18T20:15:06.395Z,7.40
2022-11-18T20:17:56.374Z,7.36
2022-11-18T20:20:44.377Z,7.31
2022-11-18T20:23:33.770Z,7.28
2022-11-18T20:26:23.639Z,7.26
2022-11-18T20:29:11.453Z,7.16
2022-11-18T20:31:59.577Z,7.08
2022-11-18T20:34:48.228Z,7.06
2022-11-18T20:37:44.627Z,6.97
2022-11-18T20:40:33.881Z,6.95
2022-11-18T20:43:24.529Z,6.79
2022-11-18T20:46:18.827Z,6.70
2022-11-18T20:49:08.401Z,6.64
2022-11-18T20:51:56.485Z,6.50
2022-11-18T20:54:45.638Z,6.47
2022-11-18T20:57:34.953Z,6.44
2022-11-18T21:00:23.224Z,6.39
2022-11-18T21:03:12.691Z,6.34
2022-11-18T21:06:10.968Z,6.37
2022-11-18T21:09:03.379Z,6.32
2022-11-18T21:11:51.327Z,6.29
2022-11-18T21:14:40.675Z,6.29
2022-11-18T21:17:28.575Z,6.24
2022-11-18T21:20:30.918Z,6.20
2022-11-18T21:23:19.203Z,6.13
2022-11-18T21:26:12.990Z,6.04
2022-11-18T21:29:05.122Z,6.00
2022-11-18T21:31:55.363Z,6.00
2022-11-18T21:34:43.531Z,5.89
2022-11-18T21:37:33.544Z,5.83
2022-11-18T21:40:21.618Z,5.83
2022-11-18T21:43:09.636Z,5.81
2022-11-18T21:46:01.179Z,5.71
2022-11-18T21:48:52.572Z,5.68
2022-11-18T21:51:46.199Z,5.59
2022-11-18T21:54:34.997Z,5.52
2022-11-18T21:57:22.657Z,5.48
2022-11-18T22:00:11.947Z,5.40
2022-11-18T22:02:59.590Z,5.37
2022-11-18T22:05:48.769Z,5.34
2022-11-18T22:08:37.421Z,5.32
2022-11-18T22:11:25.661Z,5.29
2022-11-18T22:14:13.422Z,5.26
2022-11-18T22:17:01.296Z,5.24
2022-11-18T22:19:49.344Z,5.20
2022-11-18T22:22:38.800Z,5.19
2022-11-18T22:25:27.346Z,5.16
2022-11-18T22:28:14.934Z,5.11
2022-11-18T22:31:06.943Z,5.09
2022-11-18T22:33:56.259Z,5.08
2022-11-18T22:36:43.918Z,5.06
2022-11-18T22:39:33.165Z,5.01
2022-11-18T22:42:38.561Z,4.95
2022-11-18T22:45:26.776Z,4.85
2022-11-18T22:48:14.459Z,4.77
2022-11-18T22:51:04.168Z,4.74
2022-11-18T22:54:09.802Z,4.59
2022-11-18T22:57:01.419Z,4.60
2022-11-18T22:59:49.296Z,4.52
2022-11-18T23:02:37.188Z,4.47
2022-11-18T23:05:25.055Z,4.45
2022-11-18T23:08:13.310Z,4.42
2022-11-18T23:11:03.402Z,4.37
2022-11-18T23:14:03.648Z,4.29
2022-11-18T23:16:51.516Z,4.25
2022-11-18T23:19:43.500Z,4.27
2022-11-18T23:22:31.130Z,4.18
2022-11-18T23:25:19.060Z,4.15
2022-11-18T23:28:07.294Z,4.16
2022-11-18T23:31:05.677Z,4.13
2022-11-18T23:33:55.448Z,4.11
2022-11-18T23:36:43.770Z,4.11
2022-11-18T23:39:31.774Z,4.03
2022-11-18T23:42:19.740Z,4.03
2022-11-18T23:45:08.808Z,4.01
2022-11-18T23:47:57.749Z,3.95
2022-11-18T23:50:54.968Z,3.96
2022-11-18T23:53:43.578Z,3.88
2022-11-18T23:56:36.420Z,3.86
2022-11-18T23:59:25.638Z,3.83
